sensor_id;sensor_type;location;lat;lon;timestamp;P1;durP1;ratioP1;P2;durP2;ratioP2
17340;SDS011;8788;49.930;8.660;2023-03-04T00:02:23;7.50;;;4.63;;
17340;SDS011;8788;49.930;8.660;2023-03-04T00:04:50;10.48;;;5.55;;
17340;SDS011;8788;49.930;8.660;2023-03-04T00:07:17;11.38;;;5.80;;
17340;SDS011;8788;49.930;8.660;2023-03-04T00:09:45;6.28;;;4.32;;
17340;SDS011;8788;49.930;8.660;2023-03-04T00:12:12;8.27;;;5.15;;
17340;SDS011;8788;49.930;8.660;2023-03-04T00:14:39;8.60;;;5.95;;
17340;SDS011;8788;49.930;8.660;2023-03-04T00:17:06;10.55;;;5.60;;
17340;SDS011;8788;49.930;8.660;2023-03-04T00:19:35;11.73;;;5.47;;
17340;SDS011;8788;49.930;8.660;2023-03-04T00:22:02;10.52;;;5.80;;
17340;SDS011;8788;49.930;8.660;2023-03-04T00:24:30;11.77;;;6.25;;
17340;SDS011;8788;49.930;8.660;2023-03-04T00:26:57;12.13;;;5.95;;
17340;SDS011;8788;49.930;8.660;2023-03-04T00:29:24;11.00;;;6.13;;
17340;SDS011;8788;49.930;8.660;2023-03-04T00:31:52;12.07;;;6.13;;
17340;SDS011;8788;49.930;8.660;2023-03-04T00:34:19;10.15;;;5.95;;
17340;SDS011;8788;49.930;8.660;2023-03-04T00:36:48;11.93;;;5.78;;
17340;SDS011;8788;49.930;8.660;2023-03-04T00:39:16;11.45;;;5.68;;
17340;SDS011;8788;49.930;8.660;2023-03-04T00:41:43;6.88;;;4.38;;
17340;SDS011;8788;49.930;8.660;2023-03-04T00:44:10;9.00;;;5.60;;
17340;SDS011;8788;49.930;8.660;2023-03-04T00:46:37;9.65;;;5.45;;
17340;SDS011;8788;49.930;8.660;2023-03-04T00:49:04;10.23;;;5.00;;
17340;SDS011;8788;49.930;8.660;2023-03-04T00:51:32;7.82;;;5.07;;
17340;SDS011;8788;49.930;8.660;2023-03-04T00:54:00;11.77;;;6.00;;
17340;SDS011;8788;49.930;8.660;2023-03-04T00:56:28;9.63;;;6.07;;
17340;SDS011;8788;49.930;8.660;2023-03-04T00:58:55;9.90;;;5.57;;
17340;SDS011;8788;49.930;8.660;2023-03-04T01:01:22;9.80;;;5.38;;
17340;SDS011;8788;49.930;8.660;2023-03-04T01:03:50;11.15;;;5.00;;
17340;SDS011;8788;49.930;8.660;2023-03-04T01:06:17;10.80;;;5.72;;
17340;SDS011;8788;49.930;8.660;2023-03-04T01:08:44;10.50;;;5.40;;
17340;SDS011;8788;49.930;8.660;2023-03-04T01:11:13;11.93;;;5.30;;
17340;SDS011;8788;49.930;8.660;2023-03-04T01:13:40;9.27;;;5.13;;
17340;SDS011;8788;49.930;8.660;2023-03-04T01:16:08;10.10;;;5.80;;
17340;SDS011;8788;49.930;8.660;2023-03-04T01:18:37;10.13;;;4.50;;
17340;SDS011;8788;49.930;8.660;2023-03-04T01:21:04;9.30;;;4.80;;
17340;SDS011;8788;49.930;8.660;2023-03-04T01:23:31;9.95;;;5.82;;
17340;SDS011;8788;49.930;8.660;2023-03-04T01:26:00;10.38;;;5.95;;
17340;SDS011;8788;49.930;8.660;2023-03-04T01:28:28;10.27;;;5.40;;
17340;SDS011;8788;49.930;8.660;2023-03-04T01:31:00;9.75;;;5.28;;
17340;SDS011;8788;49.930;8.660;2023-03-04T01:33:27;10.90;;;6.05;;
17340;SDS011;8788;49.930;8.660;2023-03-04T01:35:54;13.05;;;6.32;;
17340;SDS011;8788;49.930;8.660;2023-03-04T01:38:21;9.57;;;5.68;;
17340;SDS011;8788;49.930;8.660;2023-03-04T01:40:48;16.20;;;6.78;;
17340;SDS011;8788;49.930;8.660;2023-03-04T01:43:17;12.63;;;7.20;;
17340;SDS011;8788;49.930;8.660;2023-03-04T01:45:48;10.82;;;6.80;;
17340;SDS011;8788;49.930;8.660;2023-03-04T01:48:17;16.92;;;7.22;;
17340;SDS011;8788;49.930;8.660;2023-03-04T01:50:47;9.50;;;6.72;;
17340;SDS011;8788;49.930;8.660;2023-03-04T01:53:16;12.55;;;6.68;;
17340;SDS011;8788;49.930;8.660;2023-03-04T01:55:46;12.63;;;7.13;;
17340;SDS011;8788;49.930;8.660;2023-03-04T01:58:14;13.60;;;7.40;;
17340;SDS011;8788;49.930;8.660;2023-03-04T02:00:41;14.23;;;7.40;;
17340;SDS011;8788;49.930;8.660;2023-03-04T02:03:12;16.30;;;7.43;;
17340;SDS011;8788;49.930;8.660;2023-03-04T02:05:41;13.30;;;7.40;;
17340;SDS011;8788;49.930;8.660;2023-03-04T02:08:10;11.75;;;6.57;;
17340;SDS011;8788;49.930;8.660;2023-03-04T02:10:39;13.45;;;7.18;;
17340;SDS011;8788;49.930;8.660;2023-03-04T02:13:08;16.67;;;7.20;;
17340;SDS011;8788;49.930;8.660;2023-03-04T02:15:36;15.15;;;8.35;;
17340;SDS011;8788;49.930;8.660;2023-03-04T02:18:06;10.18;;;6.68;;
17340;SDS011;8788;49.930;8.660;2023-03-04T02:20:42;14.75;;;7.30;;
17340;SDS011;8788;49.930;8.660;2023-03-04T02:23:17;17.42;;;8.10;;
17340;SDS011;8788;49.930;8.660;2023-03-04T02:25:51;14.57;;;7.25;;
17340;SDS011;8788;49.930;8.660;2023-03-04T02:28:33;13.30;;;7.38;;
17340;SDS011;8788;49.930;8.660;2023-03-04T02:31:01;15.25;;;8.45;;
17340;SDS011;8788;49.930;8.660;2023-03-04T02:33:28;15.38;;;8.40;;
17340;SDS011;8788;49.930;8.660;2023-03-04T02:35:57;16.75;;;8.18;;
17340;SDS011;8788;49.930;8.660;2023-03-04T02:38:25;19.88;;;8.30;;
17340;SDS011;8788;49.930;8.660;2023-03-04T02:40:52;12.07;;;7.55;;
17340;SDS011;8788;49.930;8.660;2023-03-04T02:43:22;14.57;;;7.25;;
17340;SDS011;8788;49.930;8.660;2023-03-04T02:45:50;14.13;;;8.25;;
17340;SDS011;8788;49.930;8.660;2023-03-04T02:48:19;15.27;;;8.77;;
17340;SDS011;8788;49.930;8.660;2023-03-04T02:50:48;14.68;;;7.97;;
17340;SDS011;8788;49.930;8.660;2023-03-04T02:53:17;14.80;;;7.53;;
17340;SDS011;8788;49.930;8.660;2023-03-04T02:55:46;15.77;;;7.72;;
17340;SDS011;8788;49.930;8.660;2023-03-04T02:58:13;13.57;;;7.10;;
17340;SDS011;8788;49.930;8.660;2023-03-04T03:00:42;15.55;;;9.02;;
17340;SDS011;8788;49.930;8.660;2023-03-04T03:03:10;12.57;;;7.05;;
17340;SDS011;8788;49.930;8.660;2023-03-04T03:05:37;15.93;;;8.23;;
17340;SDS011;8788;49.930;8.660;2023-03-04T03:08:05;15.30;;;8.05;;
17340;SDS011;8788;49.930;8.660;2023-03-04T03:10:33;15.95;;;8.55;;
17340;SDS011;8788;49.930;8.660;2023-03-04T03:13:04;14.48;;;8.77;;
17340;SDS011;8788;49.930;8.660;2023-03-04T03:16:02;16.77;;;9.05;;
17340;SDS011;8788;49.930;8.660;2023-03-04T03:18:29;17.73;;;8.82;;
17340;SDS011;8788;49.930;8.660;2023-03-04T03:20:56;15.90;;;8.07;;
17340;SDS011;8788;49.930;8.660;2023-03-04T03:23:23;12.52;;;7.57;;
17340;SDS011;8788;49.930;8.660;2023-03-04T03:25:50;15.93;;;8.93;;
17340;SDS011;8788;49.930;8.660;2023-03-04T03:28:17;15.90;;;8.30;;
17340;SDS011;8788;49.930;8.660;2023-03-04T03:30:44;16.05;;;9.00;;
17340;SDS011;8788;49.930;8.660;2023-03-04T03:33:13;16.10;;;8.55;;
17340;SDS011;8788;49.930;8.660;2023-03-04T03:35:40;21.05;;;9.90;;
17340;SDS011;8788;49.930;8.660;2023-03-04T03:38:07;18.88;;;8.60;;
17340;SDS011;8788;49.930;8.660;2023-03-04T03:40:34;17.50;;;9.20;;
17340;SDS011;8788;49.930;8.660;2023-03-04T03:43:01;19.00;;;9.05;;
17340;SDS011;8788;49.930;8.660;2023-03-04T03:45:28;17.30;;;8.82;;
17340;SDS011;8788;49.930;8.660;2023-03-04T03:47:55;16.73;;;9.05;;
17340;SDS011;8788;49.930;8.660;2023-03-04T03:50:24;13.60;;;7.63;;
17340;SDS011;8788;49.930;8.660;2023-03-04T03:52:52;15.73;;;8.23;;
17340;SDS011;8788;49.930;8.660;2023-03-04T03:55:19;19.00;;;8.88;;
17340;SDS011;8788;49.930;8.660;2023-03-04T03:57:46;17.88;;;8.85;;
17340;SDS011;8788;49.930;8.660;2023-03-04T04:00:14;15.98;;;9.25;;
17340;SDS011;8788;49.930;8.660;2023-03-04T04:02:42;17.83;;;8.88;;
17340;SDS011;8788;49.930;8.660;2023-03-04T04:05:09;17.95;;;9.25;;
17340;SDS011;8788;49.930;8.660;2023-03-04T04:07:39;16.80;;;8.95;;
17340;SDS011;8788;49.930;8.660;2023-03-04T04:10:07;14.98;;;8.77;;
17340;SDS011;8788;49.930;8.660;2023-03-04T04:12:36;14.07;;;8.30;;
17340;SDS011;8788;49.930;8.660;2023-03-04T04:15:03;15.25;;;7.65;;
17340;SDS011;8788;49.930;8.660;2023-03-04T04:17:31;12.75;;;7.28;;
17340;SDS011;8788;49.930;8.660;2023-03-04T04:19:58;15.98;;;8.27;;
17340;SDS011;8788;49.930;8.660;2023-03-04T04:22:25;14.65;;;8.82;;
17340;SDS011;8788;49.930;8.660;2023-03-04T04:24:54;14.68;;;8.40;;
17340;SDS011;8788;49.930;8.660;2023-03-04T04:27:21;21.10;;;10.82;;
17340;SDS011;8788;49.930;8.660;2023-03-04T04:29:48;24.17;;;11.38;;
17340;SDS011;8788;49.930;8.660;2023-03-04T04:32:15;25.95;;;12.55;;
17340;SDS011;8788;49.930;8.660;2023-03-04T04:34:42;24.25;;;11.38;;
17340;SDS011;8788;49.930;8.660;2023-03-04T04:37:09;26.13;;;12.05;;
17340;SDS011;8788;49.930;8.660;2023-03-04T04:39:36;26.65;;;12.48;;
17340;SDS011;8788;49.930;8.660;2023-03-04T04:42:05;31.75;;;13.70;;
17340;SDS011;8788;49.930;8.660;2023-03-04T04:44:32;29.58;;;12.95;;
17340;SDS011;8788;49.930;8.660;2023-03-04T04:46:59;24.15;;;11.27;;
17340;SDS011;8788;49.930;8.660;2023-03-04T04:49:26;25.92;;;12.20;;
17340;SDS011;8788;49.930;8.660;2023-03-04T04:51:53;23.52;;;12.57;;
17340;SDS011;8788;49.930;8.660;2023-03-04T04:54:20;29.05;;;13.05;;
17340;SDS011;8788;49.930;8.660;2023-03-04T04:56:47;27.02;;;12.50;;
17340;SDS011;8788;49.930;8.660;2023-03-04T04:59:16;25.23;;;12.20;;
17340;SDS011;8788;49.930;8.660;2023-03-04T05:01:43;25.42;;;11.52;;
17340;SDS011;8788;49.930;8.660;2023-03-04T05:04:10;25.30;;;13.30;;
17340;SDS011;8788;49.930;8.660;2023-03-04T05:06:37;29.45;;;13.63;;
17340;SDS011;8788;49.930;8.660;2023-03-04T05:09:05;32.70;;;13.70;;
17340;SDS011;8788;49.930;8.660;2023-03-04T05:11:33;30.77;;;14.02;;
17340;SDS011;8788;49.930;8.660;2023-03-04T05:14:00;30.05;;;13.48;;
17340;SDS011;8788;49.930;8.660;2023-03-04T05:16:28;34.28;;;15.80;;
17340;SDS011;8788;49.930;8.660;2023-03-04T05:18:55;35.60;;;15.00;;
17340;SDS011;8788;49.930;8.660;2023-03-04T05:21:22;35.22;;;15.57;;
17340;SDS011;8788;49.930;8.660;2023-03-04T05:23:50;36.40;;;15.32;;
17340;SDS011;8788;49.930;8.660;2023-03-04T05:26:17;36.58;;;15.75;;
17340;SDS011;8788;49.930;8.660;2023-03-04T05:28:45;37.42;;;17.40;;
17340;SDS011;8788;49.930;8.660;2023-03-04T05:31:12;36.95;;;16.77;;
17340;SDS011;8788;49.930;8.660;2023-03-04T05:33:40;36.83;;;15.50;;
17340;SDS011;8788;49.930;8.660;2023-03-04T05:36:07;32.63;;;14.75;;
17340;SDS011;8788;49.930;8.660;2023-03-04T05:38:35;32.10;;;14.82;;
17340;SDS011;8788;49.930;8.660;2023-03-04T05:41:03;35.00;;;15.50;;
17340;SDS011;8788;49.930;8.660;2023-03-04T05:43:32;40.97;;;17.08;;
17340;SDS011;8788;49.930;8.660;2023-03-04T05:46:00;37.83;;;16.77;;
17340;SDS011;8788;49.930;8.660;2023-03-04T05:48:27;37.30;;;16.25;;
17340;SDS011;8788;49.930;8.660;2023-03-04T05:50:56;43.25;;;16.60;;
17340;SDS011;8788;49.930;8.660;2023-03-04T05:53:24;35.25;;;16.50;;
17340;SDS011;8788;49.930;8.660;2023-03-04T05:55:51;34.22;;;16.98;;
17340;SDS011;8788;49.930;8.660;2023-03-04T05:58:19;35.63;;;15.95;;
17340;SDS011;8788;49.930;8.660;2023-03-04T06:00:46;34.30;;;16.67;;
17340;SDS011;8788;49.930;8.660;2023-03-04T06:03:14;37.70;;;16.98;;
17340;SDS011;8788;49.930;8.660;2023-03-04T06:05:42;41.40;;;17.63;;
17340;SDS011;8788;49.930;8.660;2023-03-04T06:08:11;39.28;;;18.20;;
17340;SDS011;8788;49.930;8.660;2023-03-04T06:10:39;36.42;;;17.88;;
17340;SDS011;8788;49.930;8.660;2023-03-04T06:13:07;37.40;;;16.92;;
17340;SDS011;8788;49.930;8.660;2023-03-04T06:15:34;35.45;;;15.50;;
17340;SDS011;8788;49.930;8.660;2023-03-04T06:18:01;38.63;;;17.10;;
17340;SDS011;8788;49.930;8.660;2023-03-04T06:20:29;35.05;;;17.00;;
17340;SDS011;8788;49.930;8.660;2023-03-04T06:22:56;38.55;;;16.92;;
17340;SDS011;8788;49.930;8.660;2023-03-04T06:25:24;40.13;;;17.15;;
17340;SDS011;8788;49.930;8.660;2023-03-04T06:27:51;40.45;;;17.17;;
17340;SDS011;8788;49.930;8.660;2023-03-04T06:30:19;39.95;;;18.50;;
17340;SDS011;8788;49.930;8.660;2023-03-04T06:32:46;35.38;;;18.63;;
17340;SDS011;8788;49.930;8.660;2023-03-04T06:35:14;38.05;;;17.58;;
17340;SDS011;8788;49.930;8.660;2023-03-04T06:37:42;46.22;;;18.80;;
17340;SDS011;8788;49.930;8.660;2023-03-04T06:40:09;38.65;;;16.23;;
17340;SDS011;8788;49.930;8.660;2023-03-04T06:42:39;36.58;;;16.95;;
17340;SDS011;8788;49.930;8.660;2023-03-04T06:45:07;40.80;;;17.98;;
17340;SDS011;8788;49.930;8.660;2023-03-04T06:47:34;37.05;;;18.20;;
17340;SDS011;8788;49.930;8.660;2023-03-04T06:50:02;39.63;;;18.42;;
17340;SDS011;8788;49.930;8.660;2023-03-04T06:52:30;41.15;;;19.40;;
17340;SDS011;8788;49.930;8.660;2023-03-04T06:54:57;39.95;;;18.65;;
17340;SDS011;8788;49.930;8.660;2023-03-04T06:57:24;37.97;;;17.70;;
17340;SDS011;8788;49.930;8.660;2023-03-04T06:59:52;45.95;;;18.90;;
17340;SDS011;8788;49.930;8.660;2023-03-04T07:02:19;40.75;;;18.08;;
17340;SDS011;8788;49.930;8.660;2023-03-04T07:04:46;37.60;;;17.83;;
17340;SDS011;8788;49.930;8.660;2023-03-04T07:07:14;45.60;;;19.02;;
17340;SDS011;8788;49.930;8.660;2023-03-04T07:09:41;43.28;;;18.13;;
17340;SDS011;8788;49.930;8.660;2023-03-04T07:12:08;45.15;;;18.30;;
17340;SDS011;8788;49.930;8.660;2023-03-04T07:14:35;44.35;;;20.35;;
17340;SDS011;8788;49.930;8.660;2023-03-04T07:17:04;44.58;;;19.20;;
17340;SDS011;8788;49.930;8.660;2023-03-04T07:19:31;46.22;;;20.00;;
17340;SDS011;8788;49.930;8.660;2023-03-04T07:21:58;40.50;;;18.73;;
17340;SDS011;8788;49.930;8.660;2023-03-04T07:24:25;36.38;;;17.38;;
17340;SDS011;8788;49.930;8.660;2023-03-04T07:26:52;40.30;;;18.50;;
17340;SDS011;8788;49.930;8.660;2023-03-04T07:29:19;43.03;;;17.85;;
17340;SDS011;8788;49.930;8.660;2023-03-04T07:31:46;43.53;;;19.38;;
17340;SDS011;8788;49.930;8.660;2023-03-04T07:34:15;34.03;;;18.02;;
17340;SDS011;8788;49.930;8.660;2023-03-04T07:36:42;35.90;;;17.08;;
17340;SDS011;8788;49.930;8.660;2023-03-04T07:39:10;40.67;;;18.08;;
17340;SDS011;8788;49.930;8.660;2023-03-04T07:41:38;38.85;;;17.95;;
17340;SDS011;8788;49.930;8.660;2023-03-04T07:44:06;38.10;;;16.80;;
17340;SDS011;8788;49.930;8.660;2023-03-04T07:46:34;42.38;;;18.63;;
17340;SDS011;8788;49.930;8.660;2023-03-04T07:49:01;40.08;;;19.30;;
17340;SDS011;8788;49.930;8.660;2023-03-04T07:51:30;38.75;;;17.92;;
17340;SDS011;8788;49.930;8.660;2023-03-04T07:53:57;40.10;;;18.92;;
17340;SDS011;8788;49.930;8.660;2023-03-04T07:56:26;39.88;;;18.73;;
17340;SDS011;8788;49.930;8.660;2023-03-04T07:58:55;38.53;;;17.83;;
17340;SDS011;8788;49.930;8.660;2023-03-04T08:01:23;40.40;;;17.50;;
17340;SDS011;8788;49.930;8.660;2023-03-04T08:03:55;39.67;;;18.25;;
17340;SDS011;8788;49.930;8.660;2023-03-04T08:06:23;39.63;;;18.95;;
17340;SDS011;8788;49.930;8.660;2023-03-04T08:08:55;40.03;;;18.27;;
17340;SDS011;8788;49.930;8.660;2023-03-04T08:11:24;39.28;;;19.25;;
17340;SDS011;8788;49.930;8.660;2023-03-04T08:13:53;35.22;;;17.35;;
17340;SDS011;8788;49.930;8.660;2023-03-04T08:16:21;35.65;;;17.13;;
17340;SDS011;8788;49.930;8.660;2023-03-04T08:18:49;37.42;;;17.83;;
17340;SDS011;8788;49.930;8.660;2023-03-04T08:21:17;41.60;;;20.05;;
17340;SDS011;8788;49.930;8.660;2023-03-04T08:23:45;42.15;;;18.23;;
17340;SDS011;8788;49.930;8.660;2023-03-04T08:26:16;47.20;;;20.83;;
17340;SDS011;8788;49.930;8.660;2023-03-04T08:28:44;39.88;;;18.27;;
17340;SDS011;8788;49.930;8.660;2023-03-04T08:31:12;38.92;;;17.88;;
17340;SDS011;8788;49.930;8.660;2023-03-04T08:33:39;37.83;;;17.77;;
17340;SDS011;8788;49.930;8.660;2023-03-04T08:36:06;35.22;;;18.92;;
17340;SDS011;8788;49.930;8.660;2023-03-04T08:38:34;40.03;;;18.17;;
17340;SDS011;8788;49.930;8.660;2023-03-04T08:41:02;37.67;;;18.50;;
17340;SDS011;8788;49.930;8.660;2023-03-04T08:43:30;38.35;;;18.75;;
17340;SDS011;8788;49.930;8.660;2023-03-04T08:45:59;38.58;;;19.00;;
17340;SDS011;8788;49.930;8.660;2023-03-04T08:48:26;36.25;;;17.33;;
17340;SDS011;8788;49.930;8.660;2023-03-04T08:50:53;36.80;;;18.27;;
17340;SDS011;8788;49.930;8.660;2023-03-04T08:53:20;35.67;;;18.20;;
17340;SDS011;8788;49.930;8.660;2023-03-04T08:55:48;39.45;;;19.45;;
17340;SDS011;8788;49.930;8.660;2023-03-04T08:58:17;38.50;;;18.98;;
17340;SDS011;8788;49.930;8.660;2023-03-04T09:00:47;34.55;;;16.75;;
17340;SDS011;8788;49.930;8.660;2023-03-04T09:03:16;36.67;;;17.90;;
17340;SDS011;8788;49.930;8.660;2023-03-04T09:05:44;37.40;;;18.70;;
17340;SDS011;8788;49.930;8.660;2023-03-04T09:08:12;35.22;;;16.63;;
17340;SDS011;8788;49.930;8.660;2023-03-04T09:10:40;37.83;;;17.92;;
17340;SDS011;8788;49.930;8.660;2023-03-04T09:13:07;35.72;;;16.73;;
17340;SDS011;8788;49.930;8.660;2023-03-04T09:15:36;34.58;;;16.58;;
17340;SDS011;8788;49.930;8.660;2023-03-04T09:18:04;35.55;;;17.98;;
17340;SDS011;8788;49.930;8.660;2023-03-04T09:20:32;40.88;;;18.17;;
17340;SDS011;8788;49.930;8.660;2023-03-04T09:22:59;33.50;;;17.58;;
17340;SDS011;8788;49.930;8.660;2023-03-04T09:25:26;42.63;;;19.65;;
17340;SDS011;8788;49.930;8.660;2023-03-04T09:27:53;37.88;;;18.02;;
17340;SDS011;8788;49.930;8.660;2023-03-04T09:30:20;33.60;;;18.10;;
17340;SDS011;8788;49.930;8.660;2023-03-04T09:32:48;36.75;;;18.25;;
17340;SDS011;8788;49.930;8.660;2023-03-04T09:35:16;31.90;;;15.13;;
17340;SDS011;8788;49.930;8.660;2023-03-04T09:37:43;36.60;;;17.15;;
17340;SDS011;8788;49.930;8.660;2023-03-04T09:40:12;36.92;;;17.52;;
17340;SDS011;8788;49.930;8.660;2023-03-04T09:42:45;35.05;;;17.00;;
17340;SDS011;8788;49.930;8.660;2023-03-04T09:45:15;28.40;;;16.35;;
17340;SDS011;8788;49.930;8.660;2023-03-04T09:47:44;29.48;;;16.27;;
17340;SDS011;8788;49.930;8.660;2023-03-04T09:50:14;29.42;;;16.48;;
17340;SDS011;8788;49.930;8.660;2023-03-04T09:52:49;29.05;;;15.65;;
17340;SDS011;8788;49.930;8.660;2023-03-04T09:55:30;31.15;;;15.48;;
17340;SDS011;8788;49.930;8.660;2023-03-04T09:58:02;24.23;;;14.88;;
17340;SDS011;8788;49.930;8.660;2023-03-04T10:00:38;24.58;;;14.93;;
17340;SDS011;8788;49.930;8.660;2023-03-04T10:03:10;23.13;;;14.65;;
17340;SDS011;8788;49.930;8.660;2023-03-04T10:05:43;25.80;;;13.23;;
17340;SDS011;8788;49.930;8.660;2023-03-04T10:08:24;26.73;;;14.90;;
17340;SDS011;8788;49.930;8.660;2023-03-04T10:10:58;28.67;;;14.95;;
17340;SDS011;8788;49.930;8.660;2023-03-04T10:13:29;22.42;;;13.77;;
17340;SDS011;8788;49.930;8.660;2023-03-04T10:16:01;23.27;;;13.50;;
17340;SDS011;8788;49.930;8.660;2023-03-04T10:18:31;26.50;;;14.10;;
17340;SDS011;8788;49.930;8.660;2023-03-04T10:21:03;22.10;;;13.18;;
17340;SDS011;8788;49.930;8.660;2023-03-04T10:23:39;21.17;;;11.45;;
17340;SDS011;8788;49.930;8.660;2023-03-04T10:26:09;21.05;;;12.18;;
17340;SDS011;8788;49.930;8.660;2023-03-04T10:28:39;21.17;;;12.35;;
17340;SDS011;8788;49.930;8.660;2023-03-04T10:31:09;21.10;;;12.23;;
17340;SDS011;8788;49.930;8.660;2023-03-04T10:33:42;19.67;;;11.90;;
17340;SDS011;8788;49.930;8.660;2023-03-04T10:36:16;15.02;;;9.52;;
17340;SDS011;8788;49.930;8.660;2023-03-04T10:38:54;17.13;;;9.18;;
17340;SDS011;8788;49.930;8.660;2023-03-04T10:41:24;20.88;;;10.07;;
17340;SDS011;8788;49.930;8.660;2023-03-04T10:43:59;14.75;;;9.77;;
17340;SDS011;8788;49.930;8.660;2023-03-04T10:46:27;20.10;;;10.38;;
17340;SDS011;8788;49.930;8.660;2023-03-04T10:48:54;18.42;;;9.38;;
17340;SDS011;8788;49.930;8.660;2023-03-04T10:51:22;19.20;;;9.80;;
17340;SDS011;8788;49.930;8.660;2023-03-04T10:53:51;22.15;;;10.25;;
17340;SDS011;8788;49.930;8.660;2023-03-04T10:56:33;22.27;;;10.77;;
17340;SDS011;8788;49.930;8.660;2023-03-04T11:01:59;21.92;;;10.38;;
17340;SDS011;8788;49.930;8.660;2023-03-04T11:04:36;20.42;;;11.45;;
17340;SDS011;8788;49.930;8.660;2023-03-04T11:07:06;17.92;;;9.85;;
17340;SDS011;8788;49.930;8.660;2023-03-04T11:09:37;25.40;;;10.70;;
17340;SDS011;8788;49.930;8.660;2023-03-04T11:12:09;16.23;;;9.60;;
17340;SDS011;8788;49.930;8.660;2023-03-04T11:14:39;18.60;;;10.27;;
17340;SDS011;8788;49.930;8.660;2023-03-04T11:17:16;15.77;;;10.00;;
17340;SDS011;8788;49.930;8.660;2023-03-04T11:19:51;20.63;;;10.70;;
17340;SDS011;8788;49.930;8.660;2023-03-04T11:22:22;24.08;;;10.27;;
17340;SDS011;8788;49.930;8.660;2023-03-04T11:24:57;27.05;;;10.77;;
17340;SDS011;8788;49.930;8.660;2023-03-04T11:27:33;18.70;;;10.02;;
17340;SDS011;8788;49.930;8.660;2023-03-04T11:30:15;20.63;;;10.43;;
17340;SDS011;8788;49.930;8.660;2023-03-04T11:32:51;19.83;;;9.90;;
17340;SDS011;8788;49.930;8.660;2023-03-04T11:35:23;26.77;;;10.55;;
17340;SDS011;8788;49.930;8.660;2023-03-04T11:37:56;17.60;;;9.45;;
17340;SDS011;8788;49.930;8.660;2023-03-04T11:40:31;24.15;;;10.13;;
17340;SDS011;8788;49.930;8.660;2023-03-04T11:43:05;19.73;;;10.10;;
17340;SDS011;8788;49.930;8.660;2023-03-04T11:45:43;17.90;;;9.32;;
17340;SDS011;8788;49.930;8.660;2023-03-04T11:48:38;18.77;;;9.52;;
17340;SDS011;8788;49.930;8.660;2023-03-04T11:51:15;25.15;;;11.18;;
17340;SDS011;8788;49.930;8.660;2023-03-04T11:53:51;19.90;;;10.45;;
17340;SDS011;8788;49.930;8.660;2023-03-04T11:56:31;19.08;;;8.85;;
17340;SDS011;8788;49.930;8.660;2023-03-04T12:02:10;22.25;;;9.07;;
17340;SDS011;8788;49.930;8.660;2023-03-04T12:04:48;21.58;;;9.95;;
17340;SDS011;8788;49.930;8.660;2023-03-04T12:07:45;18.75;;;9.00;;
17340;SDS011;8788;49.930;8.660;2023-03-04T12:10:24;22.13;;;10.35;;
17340;SDS011;8788;49.930;8.660;2023-03-04T12:13:00;19.40;;;10.00;;
17340;SDS011;8788;49.930;8.660;2023-03-04T12:15:50;20.23;;;10.13;;
17340;SDS011;8788;49.930;8.660;2023-03-04T12:18:31;15.80;;;9.40;;
17340;SDS011;8788;49.930;8.660;2023-03-04T12:21:08;16.60;;;8.63;;
17340;SDS011;8788;49.930;8.660;2023-03-04T12:23:46;21.58;;;9.98;;
17340;SDS011;8788;49.930;8.660;2023-03-04T12:26:30;24.17;;;9.75;;
17340;SDS011;8788;49.930;8.660;2023-03-04T12:29:06;23.35;;;10.48;;
17340;SDS011;8788;49.930;8.660;2023-03-04T12:31:40;24.83;;;10.77;;
17340;SDS011;8788;49.930;8.660;2023-03-04T12:37:23;19.10;;;10.07;;
17340;SDS011;8788;49.930;8.660;2023-03-04T12:40:31;21.85;;;9.23;;
17340;SDS011;8788;49.930;8.660;2023-03-04T12:43:24;19.20;;;8.98;;
17340;SDS011;8788;49.930;8.660;2023-03-04T12:46:09;16.02;;;8.57;;
17340;SDS011;8788;49.930;8.660;2023-03-04T12:48:44;20.05;;;9.13;;
17340;SDS011;8788;49.930;8.660;2023-03-04T12:51:24;16.85;;;9.25;;
17340;SDS011;8788;49.930;8.660;2023-03-04T12:54:11;19.40;;;10.00;;
17340;SDS011;8788;49.930;8.660;2023-03-04T12:56:49;16.70;;;9.18;;
17340;SDS011;8788;49.930;8.660;2023-03-04T12:59:20;17.05;;;8.52;;
17340;SDS011;8788;49.930;8.660;2023-03-04T13:01:54;18.92;;;9.65;;
17340;SDS011;8788;49.930;8.660;2023-03-04T13:04:33;18.52;;;9.20;;
17340;SDS011;8788;49.930;8.660;2023-03-04T13:07:10;16.17;;;9.15;;
17340;SDS011;8788;49.930;8.660;2023-03-04T13:09:44;15.77;;;8.52;;
17340;SDS011;8788;49.930;8.660;2023-03-04T13:12:16;18.30;;;8.40;;
17340;SDS011;8788;49.930;8.660;2023-03-04T13:17:44;22.45;;;9.15;;
17340;SDS011;8788;49.930;8.660;2023-03-04T13:20:21;19.48;;;9.48;;
17340;SDS011;8788;49.930;8.660;2023-03-04T13:22:53;17.13;;;8.10;;
17340;SDS011;8788;49.930;8.660;2023-03-04T13:25:32;17.10;;;8.10;;
17340;SDS011;8788;49.930;8.660;2023-03-04T13:28:05;16.73;;;7.82;;
17340;SDS011;8788;49.930;8.660;2023-03-04T13:34:01;15.23;;;8.43;;
17340;SDS011;8788;49.930;8.660;2023-03-04T13:36:34;14.95;;;7.60;;
17340;SDS011;8788;49.930;8.660;2023-03-04T13:39:23;14.43;;;7.47;;
17340;SDS011;8788;49.930;8.660;2023-03-04T13:41:58;12.32;;;7.13;;
17340;SDS011;8788;49.930;8.660;2023-03-04T13:47:31;14.27;;;6.53;;
17340;SDS011;8788;49.930;8.660;2023-03-04T13:50:23;12.68;;;6.75;;
17340;SDS011;8788;49.930;8.660;2023-03-04T13:52:58;16.15;;;7.45;;
17340;SDS011;8788;49.930;8.660;2023-03-04T13:55:36;10.40;;;5.45;;
17340;SDS011;8788;49.930;8.660;2023-03-04T13:58:14;18.42;;;7.20;;
17340;SDS011;8788;49.930;8.660;2023-03-04T14:00:47;16.30;;;8.85;;
17340;SDS011;8788;49.930;8.660;2023-03-04T14:03:20;14.05;;;7.00;;
17340;SDS011;8788;49.930;8.660;2023-03-04T14:08:36;14.98;;;7.20;;
17340;SDS011;8788;49.930;8.660;2023-03-04T14:11:03;12.30;;;7.00;;
17340;SDS011;8788;49.930;8.660;2023-03-04T14:13:30;14.07;;;7.72;;
17340;SDS011;8788;49.930;8.660;2023-03-04T14:15:58;15.43;;;7.25;;
17340;SDS011;8788;49.930;8.660;2023-03-04T14:18:25;10.23;;;5.97;;
17340;SDS011;8788;49.930;8.660;2023-03-04T14:20:53;8.20;;;4.93;;
17340;SDS011;8788;49.930;8.660;2023-03-04T14:23:25;14.23;;;5.72;;
17340;SDS011;8788;49.930;8.660;2023-03-04T14:26:08;11.48;;;5.13;;
17340;SDS011;8788;49.930;8.660;2023-03-04T14:28:43;9.13;;;5.55;;
17340;SDS011;8788;49.930;8.660;2023-03-04T14:31:14;8.90;;;4.22;;
17340;SDS011;8788;49.930;8.660;2023-03-04T14:33:43;15.90;;;5.03;;
17340;SDS011;8788;49.930;8.660;2023-03-04T14:36:15;6.57;;;3.97;;
17340;SDS011;8788;49.930;8.660;2023-03-04T14:38:46;8.90;;;3.15;;
17340;SDS011;8788;49.930;8.660;2023-03-04T14:41:18;9.65;;;3.30;;
17340;SDS011;8788;49.930;8.660;2023-03-04T14:43:51;6.40;;;3.08;;
17340;SDS011;8788;49.930;8.660;2023-03-04T14:46:22;6.75;;;3.15;;
17340;SDS011;8788;49.930;8.660;2023-03-04T14:48:52;7.03;;;4.15;;
17340;SDS011;8788;49.930;8.660;2023-03-04T14:51:30;5.22;;;2.95;;
17340;SDS011;8788;49.930;8.660;2023-03-04T14:54:03;5.13;;;3.25;;
17340;SDS011;8788;49.930;8.660;2023-03-04T14:56:32;8.95;;;3.20;;
17340;SDS011;8788;49.930;8.660;2023-03-04T14:59:00;6.88;;;3.85;;
17340;SDS011;8788;49.930;8.660;2023-03-04T15:01:28;8.63;;;3.50;;
17340;SDS011;8788;49.930;8.660;2023-03-04T15:03:58;6.22;;;3.70;;
17340;SDS011;8788;49.930;8.660;2023-03-04T15:06:28;6.75;;;2.90;;
17340;SDS011;8788;49.930;8.660;2023-03-04T15:08:57;9.57;;;3.38;;
17340;SDS011;8788;49.930;8.660;2023-03-04T15:11:28;6.68;;;3.65;;
17340;SDS011;8788;49.930;8.660;2023-03-04T15:13:58;4.70;;;3.58;;
17340;SDS011;8788;49.930;8.660;2023-03-04T15:16:27;6.53;;;4.07;;
17340;SDS011;8788;49.930;8.660;2023-03-04T15:18:58;5.97;;;3.25;;
17340;SDS011;8788;49.930;8.660;2023-03-04T15:21:29;12.30;;;3.60;;
17340;SDS011;8788;49.930;8.660;2023-03-04T15:23:58;8.05;;;4.05;;